Сокеркино

СКИДКИ НА СМАРТФОНЫ!

Карта отелей и гостиниц, располагающихся рядом с аэропортом Сокеркино :

Сокеркино
Кострома
Костромская область 57° 47' 50.5788" N, 41° 1' 9.48" E
Код аэродрома ИКАО
UUBA
Код аэродрома RU
УУБА
Координаты
N57.79738° E041.01930°
Превышение над уровнем моря
136
Основная полоса
14/32
Курс магнитный
134,5/314,5
Длина основной ВПП
1680
Ширина основной ВПП
50
Покрытие основной ВПП
Твёрдое
Освещение ВПП
Нет
Тип: 
Аэродром
Класс аэродрома: 
Принадлежность: 
ГА
Статус: 
Действующий
Сайт: 
http://kostroma-avia.ru/airport/
E-mail аэродрома: 
koao@bk.ru
Страна: 
Россия
Регион: 
Костромская область
Город: 
Кострома
Дополнительная информация: 
Совместного базирования (МО, ФАВТ, ДОСААФ). Оператор: АО "Костромское авиапредприятие". Военный индекс: XUBA / ЬУБА. Принимаемые типы ВС: Ан-2, -24, -26, Л-410, ЯК-40, вертолеты всех типов.

Скидки на навигаторы!

Найти трансфер

С помощью этой формы Вы можете найти трансфер из аэропорта Сокеркино в город, аэропорт или вокзал:

Погода в аэропортах:

Авиационная погода в Стамбуле

Регион: 
Погода METAR: 
LTFM 190050Z 32006KT 0400 R35R/0900N R17L/0325N R34L/0600N R36/0650D FG VV001 23/23 Q1010 NOSIG RMK RWY17L 29005KT RWY34L 31006KT RWY16R 28003KT RWY36 30004KT RWY18 29005KT
Время наблюдения
2022-08-19T00:50:00Z
Температура C
23.0
Точка росы
23.0
Направление ветра
320
Скорость ветра (узлы)
6
Метео видимость
0.25
Облачность
OVX
Нижняя граница облачности (футы)
0
Явления погоды
FG
Условия полета
LIFR
FG – туман (небо не видно, температура воздуха выше нуля или ноль);

Авиационная погода в Миккели

Регион: 
Погода METAR: 
EFMI 190050Z AUTO 08001KT 4900 BCFG NCD 17/17 Q1019
Время наблюдения
2022-08-19T00:50:00Z
Температура C
17.0
Точка росы
17.0
Направление ветра
80
Скорость ветра (узлы)
1
Метео видимость
3.04
Облачность
CLR
Нижняя граница облачности (футы)
Явления погоды
BCFG
Условия полета
MVFR
CLR — нет облаков ниже 3000 м
FG – туман (небо не видно, температура воздуха выше нуля или ноль);

Авиационная погода в Богашево

Регион: 
Погода METAR: 
UNTT 190100Z 25003MPS 2300 -RA BR OVC002 10/10 Q1011 R21/290050 NOSIG RMK QFE743
Время наблюдения
2022-08-19T01:00:00Z
Температура C
10.0
Точка росы
10.0
Направление ветра
250
Скорость ветра (узлы)
6
Метео видимость
1.43
Облачность
OVC
Нижняя граница облачности (футы)
200
Явления погоды
-RA BR
Условия полета
LIFR
Аэропорт подробнее: 
OVC – сплошная облачность;
-RA - слабый дождь; BR – дымка (видимость от 1 до 9 км);

Авиационная погода в Братске

Регион: 
Погода METAR: 
UIBB 190100Z 23005MPS 200V260 9999 -SHRA BKN006 OVC020CB 09/09 Q1004 R30/60D NOSIG RMK QBB200 MT OBSC QFE711/0948
Время наблюдения
2022-08-19T01:00:00Z
Температура C
9.0
Точка росы
9.0
Направление ветра
230
Скорость ветра (узлы)
10
Метео видимость
6.21
Облачность
BKN
OVC
Нижняя граница облачности (футы)
600
2000
Явления погоды
-SHRA
Условия полета
IFR
Аэропорт подробнее: 
BKN – значительная (рассеянная, разорванная) облачность; OVC – сплошная облачность;
-SHRA - слабый ливневой дождь;